EDDB

Berlin-Schönefeld International Airport

Berlin, Germany
TAF EDDB 181100Z 1812/1912 27010KT CAVOK BECMG 1818/1820 23005KT BECMG 1905/1907 27010KT
Issued Valid From Valid To
Jun-18 @ 11:00 UTC
(2 hours ago)
Jun-18 @ 12:00 UTC
(an hour ago)
Jun-19 @ 12:00 UTC
(in 23 hours)
Jun-18 @ 12:00 to Jun-18 @ 18:00
TAF EDDB 181100Z 1812/1912 27010KT CAVOK
Wind Visibility Clouds Conditions
270° at 10 knots 10,000+ meters
  • No significant clouds
Becoming Jun-18 @ 18:00 to Jun-19 @ 05:00
BECMG 1818/1820 23005KT
Wind Visibility Clouds Conditions
230° at 5 knots 10,000+ meters
  • No significant clouds
Becoming Jun-19 @ 05:00 to Jun-19 @ 12:00
BECMG 1905/1907 27010KT
Wind Visibility Clouds Conditions
270° at 10 knots 10,000+ meters
  • No significant clouds
TAF EDDB 181100Z 1812/1912 27010KT CAVOK BECMG 1818/1820 23005KT BECMG 1905/1907 27010KT
Issued Jun-18 @ 11:00 UTC
(2 hours ago)
Valid From Jun-18 @ 12:00 UTC
(an hour ago)
Valid To Jun-19 @ 12:00 UTC
(in 23 hours)
Jun-18 @ 12:00 - Jun-18 @ 18:00
Wind Visibility
270° at 10 knots 10,000+ meters
Clouds
  • No significant clouds
Conditions
Becoming Jun-18 @ 18:00 - Jun-19 @ 05:00
Wind Visibility
230° at 5 knots 10,000+ meters
Clouds
  • No significant clouds
Conditions
Becoming Jun-19 @ 05:00 - Jun-19 @ 12:00
Wind Visibility
270° at 10 knots 10,000+ meters
Clouds
  • No significant clouds
Conditions